Time;durP1;ratioP1;P1;durP2;ratioP2;P2;SDS_P1;SDS_P2;PMS_P1;PMS_P2;Temp;Humidity;BMP_temperature;BMP_pressure;BME280_temperature;BME280_humidity;BME280_pressure;Samples;Min_cycle;Max_cycle;Signal;HPM_P1;HPM_P2
2023/05/01 00:00:20;;;;;;;6.53;5.93;;;12.60;99.90;;;;;;4996944;28;20649;-89
2023/05/01 00:02:45;;;;;;;9.00;7.17;;;12.60;99.90;;;;;;4996088;28;20447;-89
2023/05/01 00:05:11;;;;;;;7.03;6.37;;;12.60;99.90;;;;;;5013349;28;20697;-89
2023/05/01 00:07:37;;;;;;;7.17;6.57;;;12.70;99.90;;;;;;5013415;28;20174;-89
2023/05/01 00:10:03;;;;;;;7.20;6.50;;;12.60;99.90;;;;;;5012621;28;20223;-88
2023/05/01 00:12:28;;;;;;;9.23;6.30;;;12.70;99.90;;;;;;5012906;28;20214;-89
2023/05/01 00:14:54;;;;;;;7.00;5.93;;;12.60;99.90;;;;;;5014230;28;20452;-86
2023/05/01 00:17:21;;;;;;;6.50;5.93;;;12.60;99.90;;;;;;5012483;28;20182;-88
2023/05/01 00:19:56;;;;;;;7.50;6.90;;;12.60;99.90;;;;;;5014067;28;20529;-88
2023/05/01 00:22:23;;;;;;;7.10;6.50;;;12.60;99.90;;;;;;4995438;28;20418;-87
2023/05/01 00:24:49;;;;;;;8.17;6.17;;;12.60;99.90;;;;;;4996905;28;20429;-88
2023/05/01 00:27:15;;;;;;;6.80;6.00;;;12.50;99.90;;;;;;5011830;28;20238;-89
2023/05/01 00:29:41;;;;;;;8.70;6.10;;;12.50;99.90;;;;;;5011916;28;20184;-88
2023/05/01 00:32:06;;;;;;;6.73;6.13;;;12.50;99.90;;;;;;5012566;28;20481;-87
2023/05/01 00:34:32;;;;;;;6.43;5.47;;;12.50;99.90;;;;;;5013151;28;20189;-89
2023/05/01 00:36:58;;;;;;;6.90;6.23;;;12.40;99.90;;;;;;5011631;28;20185;-89
2023/05/01 00:39:24;;;;;;;6.50;6.00;;;12.40;99.90;;;;;;5012743;28;20277;-89
2023/05/01 00:41:50;;;;;;;7.50;6.47;;;12.40;99.90;;;;;;5014196;28;20263;-89
2023/05/01 00:44:16;;;;;;;7.60;6.00;;;12.30;99.90;;;;;;5011592;28;20433;-89
2023/05/01 00:46:42;;;;;;;6.97;6.33;;;12.30;99.90;;;;;;5013409;28;20437;-89
2023/05/01 00:49:08;;;;;;;9.23;6.33;;;12.30;99.90;;;;;;5013632;28;20423;-88
2023/05/01 00:51:35;;;;;;;7.70;7.00;;;12.20;99.90;;;;;;5012551;28;20480;-89
2023/05/01 00:54:02;;;;;;;10.27;8.17;;;12.20;99.90;;;;;;5013096;28;20526;-89
2023/05/01 00:56:30;;;;;;;7.33;6.53;;;12.20;99.90;;;;;;5027933;28;20442;-89
2023/05/01 00:58:56;;;;;;;7.03;6.37;;;12.20;99.90;;;;;;5011464;28;20439;-89
2023/05/01 01:01:23;;;;;;;6.23;5.63;;;12.10;99.90;;;;;;5010854;28;20434;-89
2023/05/01 01:03:50;;;;;;;6.83;6.23;;;12.10;99.90;;;;;;5012089;28;20465;-89
2023/05/01 01:06:44;;;;;;;7.50;6.80;;;12.10;99.90;;;;;;5006543;28;20182;-89
2023/05/01 01:09:27;;;;;;;7.07;6.57;;;12.10;99.90;;;;;;5009650;28;20512;-88
2023/05/01 01:12:21;;;;;;;7.13;6.50;;;12.00;99.90;;;;;;4994915;28;20982;-89
2023/05/01 01:14:49;;;;;;;7.67;6.97;;;12.00;99.90;;;;;;5013178;28;20411;-88
2023/05/01 01:17:52;;;;;;;7.10;6.50;;;12.00;99.90;;;;;;5011301;28;20912;-88
2023/05/01 01:20:20;;;;;;;7.57;6.93;;;11.90;99.90;;;;;;4979817;28;20445;-88
2023/05/01 01:23:03;;;;;;;8.87;7.40;;;12.00;99.90;;;;;;5012502;28;20441;-89
2023/05/01 01:26:09;;;;;;;7.93;6.80;;;11.90;99.90;;;;;;5012855;28;20476;-89
2023/05/01 01:29:09;;;;;;;7.63;6.87;;;11.90;99.90;;;;;;4971413;28;20542;-88
2023/05/01 01:32:17;;;;;;;9.43;8.53;;;11.90;99.90;;;;;;4991925;28;20463;-89
2023/05/01 01:35:06;;;;;;;7.60;7.00;;;11.80;99.90;;;;;;5025779;28;20495;-89
2023/05/01 01:38:14;;;;;;;7.30;6.70;;;11.80;99.90;;;;;;5010710;28;20460;-89
2023/05/01 01:41:08;;;;;;;8.10;7.20;;;11.80;99.90;;;;;;5010615;28;20541;-88
2023/05/01 01:43:39;;;;;;;7.30;6.60;;;11.80;99.90;;;;;;5011040;28;20447;-89
2023/05/01 01:46:07;;;;;;;7.40;6.30;;;11.80;99.90;;;;;;4996444;28;20454;-89
2023/05/01 01:48:37;;;;;;;7.53;6.83;;;11.80;99.90;;;;;;5010793;28;20437;-89
2023/05/01 01:51:11;;;;;;;6.97;6.47;;;11.80;99.90;;;;;;5011422;28;20489;-88
2023/05/01 01:53:39;;;;;;;7.17;6.50;;;11.80;99.90;;;;;;5027927;28;20482;-89
2023/05/01 01:56:07;;;;;;;8.30;6.40;;;11.70;99.90;;;;;;5012572;28;20449;-89
2023/05/01 01:58:37;;;;;;;7.20;6.60;;;11.70;99.90;;;;;;5026101;28;20437;-89
2023/05/01 02:01:05;;;;;;;6.73;6.23;;;11.70;99.90;;;;;;5011167;28;20433;-88
2023/05/01 02:03:32;;;;;;;6.60;6.10;;;11.70;99.90;;;;;;4991095;28;20462;-89
2023/05/01 02:05:59;;;;;;;6.97;6.40;;;11.60;99.90;;;;;;5006295;28;20849;-88
2023/05/01 02:08:29;;;;;;;6.93;6.30;;;11.60;99.90;;;;;;5011077;28;20514;-88
2023/05/01 02:10:58;;;;;;;7.30;6.53;;;11.60;99.90;;;;;;5011653;28;20390;-88
2023/05/01 02:13:27;;;;;;;7.50;6.80;;;11.60;99.90;;;;;;4991086;28;20419;-88
2023/05/01 02:15:57;;;;;;;7.17;6.27;;;11.60;99.90;;;;;;5001193;28;20443;-89
2023/05/01 02:18:25;;;;;;;8.30;6.87;;;11.60;99.90;;;;;;5011895;28;20512;-89
2023/05/01 02:20:52;;;;;;;7.47;6.73;;;11.60;99.90;;;;;;5012246;28;20452;-89
2023/05/01 02:23:17;;;;;;;7.07;6.47;;;11.60;99.90;;;;;;5016920;28;20440;-89
2023/05/01 02:25:45;;;;;;;7.13;6.50;;;11.50;99.90;;;;;;5021722;28;20484;-89
2023/05/01 02:28:14;;;;;;;7.63;7.00;;;11.50;99.90;;;;;;5024169;28;20317;-89
2023/05/01 02:30:40;;;;;;;6.70;6.20;;;11.50;99.90;;;;;;5025560;28;20417;-89
2023/05/01 02:33:09;;;;;;;6.80;6.20;;;11.50;99.90;;;;;;5025355;28;20425;-89
2023/05/01 02:35:43;;;;;;;7.50;6.90;;;11.50;99.90;;;;;;5022560;28;20180;-90
2023/05/01 02:38:11;;;;;;;6.90;6.20;;;11.50;99.90;;;;;;5019742;28;20433;-89
2023/05/01 02:40:38;;;;;;;7.17;6.53;;;11.40;99.90;;;;;;4998958;28;20528;-89
2023/05/01 02:43:07;;;;;;;7.50;6.80;;;11.40;99.90;;;;;;5016182;28;20937;-88
2023/05/01 02:45:37;;;;;;;7.53;6.93;;;11.40;99.90;;;;;;5004079;28;20517;-89
2023/05/01 02:48:05;;;;;;;7.00;6.30;;;11.40;99.90;;;;;;5013135;28;20520;-89
2023/05/01 02:50:32;;;;;;;6.83;6.20;;;11.40;99.90;;;;;;5012325;28;20480;-88
2023/05/01 02:52:58;;;;;;;7.47;6.87;;;11.40;99.90;;;;;;5015875;28;20454;-88
2023/05/01 02:55:25;;;;;;;8.23;7.53;;;11.30;99.90;;;;;;5009605;28;20431;-88
2023/05/01 02:57:51;;;;;;;9.10;7.43;;;11.30;99.90;;;;;;4996509;28;20414;-88
2023/05/01 03:00:17;;;;;;;8.20;7.40;;;11.30;99.90;;;;;;5014975;28;20432;-87
2023/05/01 03:02:44;;;;;;;7.40;6.70;;;11.30;99.90;;;;;;5014848;28;20189;-89
2023/05/01 03:05:10;;;;;;;7.50;6.77;;;11.30;99.90;;;;;;5014987;28;20438;-88
2023/05/01 03:07:36;;;;;;;7.60;6.97;;;11.20;99.90;;;;;;5015744;28;20586;-88
2023/05/01 03:10:06;;;;;;;7.60;6.80;;;11.30;99.90;;;;;;5015574;28;20179;-88
2023/05/01 03:12:34;;;;;;;7.60;6.97;;;11.20;99.90;;;;;;5018376;28;20214;-88
2023/05/01 03:15:00;;;;;;;7.63;7.03;;;11.20;99.90;;;;;;5021528;28;20420;-88
2023/05/01 03:17:26;;;;;;;7.90;7.20;;;11.20;99.90;;;;;;5013552;28;20484;-89
2023/05/01 03:19:52;;;;;;;8.83;7.63;;;11.20;99.90;;;;;;5013765;28;20250;-88
2023/05/01 03:22:17;;;;;;;7.80;7.10;;;11.20;99.90;;;;;;5013628;28;20187;-89
2023/05/01 03:24:43;;;;;;;8.37;7.57;;;11.20;99.90;;;;;;5015655;28;20610;-89
2023/05/01 03:27:09;;;;;;;7.50;6.70;;;11.20;99.90;;;;;;5013612;28;20183;-90
2023/05/01 03:29:36;;;;;;;7.50;6.90;;;11.10;99.90;;;;;;5013103;28;20275;-89
2023/05/01 03:32:03;;;;;;;8.57;7.83;;;11.10;99.90;;;;;;5012446;28;20654;-90
2023/05/01 03:34:29;;;;;;;7.97;7.17;;;11.20;99.90;;;;;;5011305;28;20429;-90
2023/05/01 03:36:55;;;;;;;8.10;7.30;;;11.20;99.90;;;;;;5015078;28;20433;-89
2023/05/01 03:39:21;;;;;;;8.40;7.70;;;11.20;99.90;;;;;;5014298;28;20408;-88
2023/05/01 03:41:47;;;;;;;7.37;6.77;;;11.20;99.90;;;;;;5014300;28;20462;-89
2023/05/01 03:44:12;;;;;;;9.07;7.10;;;11.20;99.90;;;;;;5014960;28;20483;-89
2023/05/01 03:46:38;;;;;;;8.00;7.40;;;11.10;99.90;;;;;;5029138;28;20189;-87
2023/05/01 03:49:04;;;;;;;8.20;7.50;;;11.20;99.90;;;;;;5014700;28;20278;-90
2023/05/01 03:51:29;;;;;;;8.40;7.70;;;11.20;99.90;;;;;;5013690;28;20234;-90
2023/05/01 03:53:57;;;;;;;8.03;7.37;;;11.20;99.90;;;;;;5013006;28;20218;-89
2023/05/01 03:56:24;;;;;;;8.50;7.63;;;11.20;99.90;;;;;;4997432;28;20231;-89
2023/05/01 03:58:53;;;;;;;8.90;8.10;;;11.20;99.90;;;;;;5012635;28;20474;-89
2023/05/01 04:01:19;;;;;;;9.07;8.30;;;11.20;99.90;;;;;;5003291;28;20450;-89
2023/05/01 04:03:45;;;;;;;8.43;7.77;;;11.10;99.90;;;;;;5013693;28;20394;-89
2023/05/01 04:06:16;;;;;;;8.87;8.00;;;11.10;99.90;;;;;;4996864;28;20782;-89
2023/05/01 04:08:41;;;;;;;9.47;8.57;;;11.10;99.90;;;;;;4996206;28;20439;-89
2023/05/01 04:11:07;;;;;;;9.67;8.90;;;11.10;99.90;;;;;;5013204;28;20474;-88
2023/05/01 04:13:33;;;;;;;8.37;7.57;;;11.10;99.90;;;;;;5012948;28;20604;-88
2023/05/01 04:15:59;;;;;;;9.30;8.40;;;11.10;99.90;;;;;;4995637;28;20247;-89
2023/05/01 04:18:24;;;;;;;8.60;7.70;;;11.10;99.90;;;;;;5013454;28;20179;-88
2023/05/01 04:20:51;;;;;;;8.50;7.83;;;11.20;99.90;;;;;;5013833;28;20592;-89
2023/05/01 04:23:16;;;;;;;9.20;8.30;;;11.10;99.90;;;;;;5013447;28;20437;-88
2023/05/01 04:25:43;;;;;;;8.83;8.10;;;11.20;99.90;;;;;;5015142;28;20931;-89
2023/05/01 04:28:12;;;;;;;8.00;7.30;;;11.20;99.90;;;;;;5015701;28;20272;-89
2023/05/01 04:30:38;;;;;;;9.03;8.10;;;11.20;99.90;;;;;;4995704;28;20435;-89
2023/05/01 04:33:10;;;;;;;8.30;7.50;;;11.20;99.90;;;;;;5012983;28;20837;-89
2023/05/01 04:35:41;;;;;;;8.33;7.53;;;11.20;99.90;;;;;;5014840;28;20512;-89
2023/05/01 04:38:09;;;;;;;7.73;6.87;;;11.30;99.90;;;;;;5014304;28;20432;-89
2023/05/01 04:40:35;;;;;;;8.67;7.87;;;11.30;99.90;;;;;;5017938;28;20424;-89
2023/05/01 04:43:01;;;;;;;9.23;8.40;;;11.30;99.90;;;;;;4996670;28;20424;-89
2023/05/01 04:45:26;;;;;;;9.23;8.33;;;11.30;99.90;;;;;;5011836;28;20487;-89
2023/05/01 04:47:52;;;;;;;8.43;7.40;;;11.30;99.90;;;;;;5026251;28;20214;-89
2023/05/01 04:50:18;;;;;;;7.70;7.00;;;11.30;99.90;;;;;;5012209;28;20676;-89
2023/05/01 04:52:44;;;;;;;8.23;7.53;;;11.30;99.90;;;;;;5013030;28;20224;-90
2023/05/01 04:55:10;;;;;;;7.87;7.17;;;11.30;99.90;;;;;;4993970;28;20442;-89
2023/05/01 04:57:36;;;;;;;8.20;7.40;;;11.20;99.90;;;;;;5001828;28;20487;-89
2023/05/01 05:00:02;;;;;;;8.47;7.50;;;11.20;99.90;;;;;;5013374;28;20210;-89
2023/05/01 05:02:28;;;;;;;8.60;7.90;;;11.20;99.90;;;;;;5008313;28;20198;-90
2023/05/01 05:04:55;;;;;;;8.53;7.73;;;11.30;99.90;;;;;;5015417;28;20433;-89
2023/05/01 05:07:21;;;;;;;7.90;7.20;;;11.30;99.90;;;;;;5013897;28;20175;-89
2023/05/01 05:09:47;;;;;;;8.07;7.30;;;11.40;99.90;;;;;;5012971;28;20480;-89
2023/05/01 05:12:16;;;;;;;7.60;7.00;;;11.40;99.90;;;;;;4996892;28;20465;-89
2023/05/01 05:14:42;;;;;;;8.00;7.33;;;11.40;99.90;;;;;;5017750;28;20580;-88
2023/05/01 05:17:08;;;;;;;9.37;7.57;;;11.40;99.90;;;;;;5028260;28;20924;-89
2023/05/01 05:19:34;;;;;;;7.87;7.07;;;11.40;99.90;;;;;;5025921;28;20438;-88
2023/05/01 05:22:03;;;;;;;8.43;7.20;;;11.30;99.90;;;;;;5027027;28;20446;-88
2023/05/01 05:24:29;;;;;;;8.23;7.50;;;11.20;99.90;;;;;;5025260;28;20434;-89
2023/05/01 05:26:55;;;;;;;7.87;7.17;;;11.10;99.90;;;;;;5026683;28;21111;-89
2023/05/01 05:29:21;;;;;;;8.00;7.30;;;11.20;99.90;;;;;;5025401;28;20572;-89
2023/05/01 05:31:47;;;;;;;8.10;7.40;;;11.30;99.90;;;;;;5019098;28;20553;-89
2023/05/01 05:34:13;;;;;;;8.97;7.57;;;11.30;99.90;;;;;;5019602;28;20963;-89
2023/05/01 05:36:38;;;;;;;8.40;7.70;;;11.40;99.90;;;;;;5017743;28;20550;-89
2023/05/01 05:39:04;;;;;;;8.87;7.60;;;11.50;99.90;;;;;;5021164;28;20404;-89
2023/05/01 05:41:30;;;;;;;8.70;7.40;;;11.60;99.90;;;;;;5019244;28;20189;-89
2023/05/01 05:43:56;;;;;;;8.77;7.93;;;11.60;99.90;;;;;;5014746;28;20247;-89
2023/05/01 05:46:21;;;;;;;9.73;7.90;;;11.60;99.90;;;;;;4993174;28;20187;-89
2023/05/01 05:48:47;;;;;;;7.13;6.60;;;11.70;99.90;;;;;;5002676;28;20195;-89
2023/05/01 05:51:13;;;;;;;9.13;8.20;;;11.80;99.90;;;;;;5007404;28;20244;-89
2023/05/01 05:53:39;;;;;;;8.23;7.50;;;11.80;99.90;;;;;;5011181;28;20180;-90
2023/05/01 05:56:05;;;;;;;7.47;6.77;;;11.90;99.90;;;;;;5011382;28;20438;-89
2023/05/01 05:58:31;;;;;;;8.07;7.33;;;12.00;99.90;;;;;;5009895;28;20193;-89
2023/05/01 06:00:56;;;;;;;7.77;7.20;;;12.00;99.90;;;;;;5011051;28;20846;-89
2023/05/01 06:03:22;;;;;;;8.83;8.00;;;12.10;99.90;;;;;;5012295;28;20205;-89
2023/05/01 06:05:48;;;;;;;8.53;7.63;;;12.20;99.90;;;;;;5010694;28;20194;-89
2023/05/01 06:08:14;;;;;;;8.60;7.80;;;12.30;99.90;;;;;;5010038;28;20240;-89
2023/05/01 06:10:43;;;;;;;8.47;7.77;;;12.40;99.90;;;;;;5023391;28;20426;-89
2023/05/01 06:13:10;;;;;;;7.90;7.20;;;12.50;99.90;;;;;;5005918;28;20484;-89
2023/05/01 06:15:37;;;;;;;7.37;6.77;;;12.60;99.90;;;;;;5010286;28;20439;-89
2023/05/01 06:18:03;;;;;;;7.73;7.03;;;12.60;99.90;;;;;;5012036;28;20859;-88
2023/05/01 06:20:29;;;;;;;8.27;7.57;;;12.70;99.90;;;;;;5009572;28;20441;-88
2023/05/01 06:22:55;;;;;;;7.73;6.87;;;12.80;99.90;;;;;;5010284;28;20440;-86
2023/05/01 06:25:22;;;;;;;7.50;6.90;;;12.80;99.90;;;;;;5008091;28;20432;-90
2023/05/01 06:27:49;;;;;;;7.33;6.73;;;12.90;99.90;;;;;;4991696;28;20661;-90
2023/05/01 06:30:15;;;;;;;8.00;7.40;;;13.00;99.90;;;;;;4998687;28;20497;-93
2023/05/01 06:32:44;;;;;;;7.63;6.90;;;13.10;99.90;;;;;;5014120;28;20559;-90
2023/05/01 06:35:10;;;;;;;8.17;7.37;;;13.20;99.90;;;;;;5011228;28;20436;-90
2023/05/01 06:37:37;;;;;;;7.53;6.93;;;13.30;99.90;;;;;;4999325;28;20596;-90
2023/05/01 06:40:07;;;;;;;7.53;7.00;;;13.40;99.90;;;;;;4988334;28;20611;-88
2023/05/01 06:42:33;;;;;;;7.80;7.10;;;13.50;99.90;;;;;;5001638;28;20808;-88
2023/05/01 06:44:58;;;;;;;8.60;7.90;;;13.60;99.90;;;;;;5016161;28;20414;-89
2023/05/01 06:47:24;;;;;;;8.43;7.67;;;13.70;99.90;;;;;;5016397;28;20632;-89
2023/05/01 06:49:50;;;;;;;5.50;5.13;;;14.30;99.90;;;;;;5011947;28;20954;-89
2023/05/01 06:52:16;;;;;;;8.00;7.30;;;14.90;99.90;;;;;;5008911;28;20260;-89
2023/05/01 06:54:41;;;;;;;6.63;6.13;;;15.50;99.90;;;;;;4985261;28;20296;-89
2023/05/01 06:57:07;;;;;;;9.40;8.13;;;16.00;99.90;;;;;;4988080;28;20414;-90
2023/05/01 06:59:33;;;;;;;6.20;5.80;;;16.40;99.90;;;;;;5005592;28;21023;-91
2023/05/01 07:02:01;;;;;;;9.83;8.70;;;16.70;99.90;;;;;;5008743;28;20225;-91
2023/05/01 07:04:27;;;;;;;11.47;10.47;;;17.00;99.90;;;;;;5020819;28;20425;-89
2023/05/01 07:06:52;;;;;;;11.63;10.70;;;17.10;99.90;;;;;;5010778;28;20682;-93
2023/05/01 07:09:18;;;;;;;9.73;9.00;;;17.20;99.90;;;;;;5008872;28;20644;-91
2023/05/01 07:11:44;;;;;;;9.77;8.87;;;17.30;99.90;;;;;;5005698;28;20243;-92
2023/05/01 07:14:12;;;;;;;10.40;9.40;;;17.40;99.90;;;;;;5024899;28;20172;-92
2023/05/01 07:16:38;;;;;;;10.07;9.17;;;17.50;99.90;;;;;;5017687;28;20422;-90
2023/05/01 07:19:04;;;;;;;9.70;8.57;;;17.60;99.80;;;;;;5025451;28;20187;-90
2023/05/01 07:21:31;;;;;;;9.17;8.37;;;17.60;99.90;;;;;;5027044;28;20190;-88
2023/05/01 07:23:57;;;;;;;8.03;7.33;;;17.70;98.80;;;;;;5015800;28;20418;-90
2023/05/01 07:26:25;;;;;;;8.40;7.50;;;17.70;98.30;;;;;;5013914;28;20426;-91
2023/05/01 07:28:51;;;;;;;8.25;7.55;;;17.80;98.20;;;;;;5005675;28;20419;-90
2023/05/01 07:31:17;;;;;;;10.10;9.20;;;17.90;97.00;;;;;;5009970;28;20566;-91
2023/05/01 07:33:43;;;;;;;8.77;8.07;;;18.00;97.50;;;;;;5000594;28;20187;-90
2023/05/01 07:36:09;;;;;;;9.37;8.57;;;18.00;97.60;;;;;;5005648;28;20182;-89
2023/05/01 07:38:34;;;;;;;7.30;6.70;;;18.10;97.90;;;;;;5013956;28;20433;-90
2023/05/01 07:41:01;;;;;;;6.77;6.27;;;18.10;96.80;;;;;;4997244;28;20186;-91
2023/05/01 07:43:26;;;;;;;6.73;6.13;;;18.20;95.60;;;;;;5009265;28;20427;-89
2023/05/01 07:45:57;;;;;;;6.67;6.17;;;18.20;95.00;;;;;;5012723;28;20469;-88
2023/05/01 07:48:24;;;;;;;7.00;6.40;;;18.30;95.50;;;;;;5013950;28;20230;-91
2023/05/01 07:50:50;;;;;;;6.10;5.60;;;18.30;95.50;;;;;;5012506;28;21179;-91
2023/05/01 07:53:15;;;;;;;6.70;5.47;;;18.30;95.20;;;;;;5015110;28;20481;-93
2023/05/01 07:55:41;;;;;;;10.30;6.20;;;18.30;94.50;;;;;;5017752;28;20937;-92
2023/05/01 07:58:07;;;;;;;6.83;6.23;;;18.40;94.10;;;;;;5014271;28;20183;-85
2023/05/01 08:00:34;;;;;;;6.23;5.83;;;18.40;93.80;;;;;;5012683;28;20207;-84
2023/05/01 08:03:00;;;;;;;6.53;6.07;;;18.40;93.60;;;;;;5012873;28;20187;-85
2023/05/01 08:05:26;;;;;;;5.00;4.67;;;18.30;93.70;;;;;;5013158;28;20429;-85
2023/05/01 08:07:52;;;;;;;6.07;5.63;;;18.20;93.30;;;;;;5011499;28;20422;-84
2023/05/01 08:10:17;;;;;;;5.73;5.33;;;18.10;93.20;;;;;;5012864;28;20184;-85
2023/05/01 08:12:43;;;;;;;5.40;5.00;;;18.00;92.20;;;;;;5027997;28;20581;-86
2023/05/01 08:15:11;;;;;;;5.70;5.07;;;17.90;93.10;;;;;;5023846;28;20522;-91
2023/05/01 08:17:36;;;;;;;4.83;4.53;;;17.90;94.10;;;;;;5006258;28;20468;-86
2023/05/01 08:20:03;;;;;;;7.17;4.60;;;17.90;94.90;;;;;;5013694;28;20187;-85
2023/05/01 08:22:28;;;;;;;6.40;5.90;;;17.80;92.30;;;;;;5013841;28;20191;-85
2023/05/01 08:24:55;;;;;;;5.50;5.00;;;17.80;92.20;;;;;;5014503;28;20401;-92
2023/05/01 08:27:20;;;;;;;6.13;5.73;;;17.90;92.60;;;;;;5013453;28;20187;-84
2023/05/01 08:29:46;;;;;;;6.60;6.10;;;17.90;90.30;;;;;;5012556;28;20430;-88
2023/05/01 08:32:13;;;;;;;455.30;350.83;;;17.90;88.40;;;;;;5013067;28;20222;-85
2023/05/01 08:34:41;;;;;;;34.13;27.57;;;17.90;89.20;;;;;;5014404;28;20612;-86
2023/05/01 08:37:07;;;;;;;10.93;9.93;;;18.00;88.10;;;;;;5012814;28;20434;-85
2023/05/01 08:39:33;;;;;;;5.00;4.70;;;18.00;89.20;;;;;;5022781;28;20910;-86
2023/05/01 08:41:59;;;;;;;5.93;5.53;;;18.00;87.80;;;;;;5008601;28;20195;-84
2023/05/01 08:44:28;;;;;;;5.27;4.90;;;18.00;86.60;;;;;;5007770;28;20191;-84
2023/05/01 08:47:12;;;;;;;5.17;4.77;;;18.10;85.30;;;;;;5004154;28;20336;-84
2023/05/01 08:49:40;;;;;;;5.10;4.80;;;18.10;86.50;;;;;;5006412;28;20438;-84
2023/05/01 08:52:06;;;;;;;5.67;5.27;;;18.10;86.00;;;;;;5009228;28;20469;-84
2023/05/01 08:54:33;;;;;;;4.80;4.50;;;18.10;84.80;;;;;;5015974;28;20807;-83
2023/05/01 08:57:03;;;;;;;4.90;4.50;;;18.20;87.90;;;;;;5017804;28;20428;-83
2023/05/01 08:59:33;;;;;;;4.90;4.50;;;18.30;87.10;;;;;;5034289;28;20390;-84
2023/05/01 09:02:04;;;;;;;5.30;4.90;;;18.30;85.70;;;;;;5015389;28;20513;-84
2023/05/01 09:04:38;;;;;;;7.50;6.80;;;18.40;86.90;;;;;;5031572;28;20479;-84
2023/05/01 09:07:04;;;;;;;6.17;5.63;;;18.50;86.50;;;;;;5002125;28;20435;-85
2023/05/01 09:09:31;;;;;;;5.47;5.10;;;18.50;84.60;;;;;;5016037;28;20414;-83
2023/05/01 09:12:25;;;;;;;5.37;5.07;;;18.60;85.00;;;;;;5012260;28;20468;-85
2023/05/01 09:14:55;;;;;;;5.60;5.20;;;18.70;86.00;;;;;;4980436;28;20515;-84
2023/05/01 09:17:22;;;;;;;5.47;5.17;;;18.90;86.30;;;;;;5010474;28;20431;-84
2023/05/01 09:19:49;;;;;;;44.87;34.30;;;19.10;85.70;;;;;;5012571;28;20418;-85
2023/05/01 09:22:17;;;;;;;29.53;13.97;;;19.20;85.40;;;;;;5012314;28;20928;-85
2023/05/01 09:24:43;;;;;;;24.70;18.47;;;19.30;80.80;;;;;;5014787;28;20471;-82
2023/05/01 09:27:13;;;;;;;8.23;7.50;;;19.50;79.90;;;;;;5013508;28;20414;-83
2023/05/01 09:29:45;;;;;;;5.63;5.13;;;19.60;80.40;;;;;;5013393;28;20893;-85
2023/05/01 09:32:24;;;;;;;68.87;52.33;;;19.60;79.20;;;;;;5011796;28;20984;-83
2023/05/01 09:34:51;;;;;;;74.37;52.67;;;19.80;82.00;;;;;;5011712;28;20890;-84
2023/05/01 09:37:29;;;;;;;10.47;9.43;;;20.00;83.90;;;;;;5007957;28;20402;-84
2023/05/01 09:40:09;;;;;;;6.07;5.67;;;20.20;79.90;;;;;;5002337;28;20427;-82
2023/05/01 09:42:49;;;;;;;6.10;5.70;;;20.40;84.00;;;;;;5000606;28;20484;-83
2023/05/01 09:45:15;;;;;;;6.70;6.30;;;20.70;81.20;;;;;;5000836;28;20437;-62
2023/05/01 09:47:42;;;;;;;6.20;5.80;;;20.90;82.60;;;;;;4998144;28;20406;-64
2023/05/01 09:50:08;;;;;;;5.80;5.43;;;21.10;80.90;;;;;;5000614;28;20489;-62
2023/05/01 09:52:34;;;;;;;5.60;5.20;;;21.30;77.80;;;;;;5001997;28;20469;-63
2023/05/01 09:55:15;;;;;;;6.23;5.83;;;21.50;78.00;;;;;;5001523;28;20429;-62
2023/05/01 09:57:42;;;;;;;5.07;4.77;;;21.70;76.70;;;;;;4984735;28;20429;-63
2023/05/01 10:00:13;;;;;;;4.67;4.47;;;21.80;76.00;;;;;;5002966;28;20465;-63
2023/05/01 10:02:43;;;;;;;4.93;4.63;;;21.90;72.10;;;;;;5003183;28;20437;-63
2023/05/01 10:05:10;;;;;;;4.90;4.60;;;21.90;70.10;;;;;;5005605;28;20440;-63
2023/05/01 10:07:37;;;;;;;4.63;4.43;;;21.80;68.10;;;;;;5006442;28;20568;-62
2023/05/01 10:10:20;;;;;;;4.07;3.87;;;21.80;69.30;;;;;;5005204;28;20703;-62
2023/05/01 10:12:46;;;;;;;4.27;4.07;;;21.70;65.80;;;;;;5001696;28;20465;-63
2023/05/01 10:15:13;;;;;;;4.20;4.00;;;21.60;63.60;;;;;;5008159;28;20465;-63
2023/05/01 10:17:40;;;;;;;4.00;3.80;;;21.50;64.90;;;;;;4996606;28;20419;-63
2023/05/01 10:20:08;;;;;;;6.03;4.80;;;21.40;66.60;;;;;;5005915;28;20425;-63
2023/05/01 10:22:33;;;;;;;4.27;4.07;;;21.30;66.60;;;;;;5016157;28;20424;-62
2023/05/01 10:25:00;;;;;;;4.27;3.97;;;21.30;66.90;;;;;;5014538;28;20436;-63
2023/05/01 10:27:26;;;;;;;4.13;3.93;;;21.20;67.00;;;;;;5013849;28;20844;-63
2023/05/01 10:29:53;;;;;;;4.07;3.87;;;21.10;68.50;;;;;;5013905;28;20438;-63
2023/05/01 10:32:20;;;;;;;4.07;3.87;;;21.00;70.10;;;;;;5015894;28;20461;-66
2023/05/01 10:34:58;;;;;;;3.70;3.50;;;21.00;70.40;;;;;;5011462;28;20433;-71
2023/05/01 10:37:39;;;;;;;4.20;3.80;;;20.90;67.50;;;;;;5009460;28;20441;-71
2023/05/01 10:40:47;;;;;;;28.73;24.27;;;20.80;69.20;;;;;;5009666;28;20433;-71
2023/05/01 10:43:13;;;;;;;102.70;78.93;;;20.70;71.20;;;;;;4996153;28;20441;-70
2023/05/01 10:45:38;;;;;;;24.97;18.70;;;20.60;70.70;;;;;;5013399;28;20512;-70
2023/05/01 10:48:04;;;;;;;6.87;6.37;;;20.50;72.30;;;;;;5014712;28;20544;-70
2023/05/01 10:50:30;;;;;;;7.53;6.93;;;20.50;71.10;;;;;;5011166;28;20357;-68
2023/05/01 10:53:16;;;;;;;6.27;5.87;;;20.40;71.60;;;;;;5012931;28;20238;-69
2023/05/01 10:55:44;;;;;;;5.83;5.40;;;20.40;75.20;;;;;;5010470;28;20189;-69
2023/05/01 10:58:12;;;;;;;6.63;6.23;;;20.30;74.30;;;;;;5014063;28;20426;-69
2023/05/01 11:00:39;;;;;;;6.67;6.07;;;20.20;73.10;;;;;;5006374;28;20481;-70
2023/05/01 11:03:20;;;;;;;6.00;5.70;;;20.20;73.20;;;;;;5004931;28;20418;-71
2023/05/01 11:06:03;;;;;;;4.97;4.67;;;20.20;73.90;;;;;;5005590;28;20479;-71
2023/05/01 11:08:35;;;;;;;5.03;4.73;;;20.10;72.90;;;;;;5007454;28;20434;-72
2023/05/01 11:11:20;;;;;;;6.27;5.87;;;20.10;74.90;;;;;;5007762;28;20997;-72
2023/05/01 11:14:02;;;;;;;4.90;4.70;;;20.00;74.80;;;;;;5005577;28;20445;-71
2023/05/01 11:16:45;;;;;;;6.17;5.77;;;20.00;75.00;;;;;;5003103;28;20418;-71
2023/05/01 11:19:19;;;;;;;4.80;4.50;;;20.00;75.20;;;;;;5004810;28;20436;-69
2023/05/01 11:21:45;;;;;;;4.70;4.50;;;19.90;76.40;;;;;;4999037;28;20450;-70
2023/05/01 11:24:11;;;;;;;5.33;4.93;;;19.90;79.50;;;;;;5005262;28;20437;-70
2023/05/01 11:26:41;;;;;;;5.00;4.70;;;19.80;79.40;;;;;;5007024;28;20430;-70
2023/05/01 11:29:10;;;;;;;5.07;4.77;;;19.80;78.20;;;;;;5004322;28;20168;-73
2023/05/01 11:31:37;;;;;;;4.67;4.40;;;19.80;78.10;;;;;;5004368;28;20520;-72
2023/05/01 11:34:05;;;;;;;6.40;6.00;;;19.80;77.70;;;;;;5002913;28;20406;-71
2023/05/01 11:36:48;;;;;;;5.10;4.80;;;19.80;79.00;;;;;;5004635;28;20410;-71
2023/05/01 11:39:18;;;;;;;5.10;4.80;;;19.80;77.50;;;;;;5007219;28;20418;-72
2023/05/01 11:41:47;;;;;;;4.00;3.80;;;19.80;75.90;;;;;;5004460;28;20430;-71
2023/05/01 11:44:16;;;;;;;4.20;4.00;;;19.80;73.90;;;;;;5008496;28;20475;-73
2023/05/01 11:46:41;;;;;;;4.60;4.23;;;19.80;74.90;;;;;;5007702;28;20454;-71
2023/05/01 11:49:08;;;;;;;4.40;4.20;;;19.80;74.50;;;;;;5003006;28;20442;-72
2023/05/01 11:51:34;;;;;;;8.67;7.63;;;19.80;74.50;;;;;;5010640;28;20768;-78
2023/05/01 11:54:12;;;;;;;8.63;6.70;;;19.90;91.00;;;;;;5004945;28;20475;-78
2023/05/01 11:56:39;;;;;;;3.80;3.70;;;20.00;91.80;;;;;;5003566;28;20458;-75
2023/05/01 11:59:11;;;;;;;4.10;3.77;;;20.00;91.60;;;;;;5001454;28;20437;-79
2023/05/01 12:01:38;;;;;;;3.83;3.63;;;20.00;87.20;;;;;;5002922;28;20438;-77
2023/05/01 12:04:09;;;;;;;42.50;35.60;;;20.00;86.20;;;;;;5002818;28;20928;-79
2023/05/01 12:06:45;;;;;;;6.37;5.77;;;19.90;83.30;;;;;;5004740;28;20406;-80
2023/05/01 12:09:22;;;;;;;29.63;26.53;;;19.90;87.50;;;;;;5003318;28;20402;-80
2023/05/01 12:11:50;;;;;;;5.20;4.80;;;19.90;81.30;;;;;;5007426;28;20497;-81
2023/05/01 12:14:17;;;;;;;5.87;5.37;;;19.80;77.20;;;;;;5011695;28;20407;-81
2023/05/01 12:16:43;;;;;;;4.27;4.07;;;19.70;72.70;;;;;;5013109;28;20413;-80
2023/05/01 12:19:13;;;;;;;4.00;3.80;;;19.60;70.10;;;;;;5013812;28;20425;-79
2023/05/01 12:21:39;;;;;;;3.73;3.53;;;19.50;70.80;;;;;;5011320;28;20421;-72
2023/05/01 12:24:16;;;;;;;3.70;3.50;;;19.50;71.40;;;;;;5008667;28;20910;-81
2023/05/01 12:26:44;;;;;;;3.80;3.47;;;19.50;73.70;;;;;;5010830;28;20407;-80
2023/05/01 12:29:10;;;;;;;3.87;3.67;;;19.40;70.80;;;;;;5007263;28;20901;-82
2023/05/01 12:31:44;;;;;;;12.83;11.50;;;19.30;70.70;;;;;;5005319;28;20451;-82
2023/05/01 12:34:10;;;;;;;4.03;3.80;;;19.40;78.70;;;;;;5003599;28;20402;-81
2023/05/01 12:36:36;;;;;;;8.00;7.30;;;19.40;74.60;;;;;;5003516;28;20868;-81
2023/05/01 12:39:08;;;;;;;5.07;4.30;;;19.50;78.90;;;;;;5004430;28;20433;-76
2023/05/01 12:41:35;;;;;;;10.23;9.20;;;19.70;75.20;;;;;;5005521;28;20394;-80
2023/05/01 12:44:02;;;;;;;11.00;9.80;;;19.90;81.30;;;;;;5003039;28;20434;-81
2023/05/01 12:46:28;;;;;;;9.63;8.63;;;20.10;81.80;;;;;;5003644;28;20421;-81
2023/05/01 12:48:55;;;;;;;3.90;3.70;;;20.30;77.00;;;;;;5006038;28;20398;-82
2023/05/01 12:51:21;;;;;;;5.63;3.60;;;20.30;68.90;;;;;;5003947;28;20442;-81
2023/05/01 12:53:48;;;;;;;3.50;3.40;;;20.30;63.40;;;;;;5004234;28;20414;-81